Station: EHBK - 15/12/2018 00:55Z (il y a 15 minutes)
EHBK 150055Z AUTO 18004KT 130V210 9999 OVC032 00/M05 Q1025
Vent du 180º - 4 kt (vent de direction variable de 130º à 210º)
Visibilité > 10 km
Ciel couvert à 3200 pieds
Température: +00ºC - Point de rosée: -05ºC - QNH: 1025 hPa